createdAt,value
2022-09-12T00:00:34.177Z,31.80
2022-09-12T00:01:34.231Z,31.80
2022-09-12T00:02:34.160Z,29.80
2022-09-12T00:03:34.189Z,32.10
2022-09-12T00:04:34.142Z,34.50
2022-09-12T00:05:34.137Z,33.00
2022-09-12T00:06:34.133Z,35.00
2022-09-12T00:07:34.112Z,33.90
2022-09-12T00:08:34.079Z,28.30
2022-09-12T00:09:34.079Z,30.30
2022-09-12T00:10:34.064Z,29.00
2022-09-12T00:11:34.066Z,28.60
2022-09-12T00:12:34.041Z,28.50
2022-09-12T00:13:37.276Z,31.90
2022-09-12T00:14:35.122Z,35.30
2022-09-12T00:15:33.994Z,36.70
2022-09-12T00:16:34.714Z,35.80
2022-09-12T00:17:33.964Z,33.10
2022-09-12T00:18:34.711Z,36.00
2022-09-12T00:19:33.947Z,36.80
2022-09-12T00:20:33.942Z,34.30
2022-09-12T00:21:33.928Z,38.50
2022-09-12T00:22:33.887Z,41.70
2022-09-12T00:23:33.882Z,36.90
2022-09-12T00:24:33.888Z,41.30
2022-09-12T00:25:33.869Z,34.80
2022-09-12T00:26:33.963Z,37.20
2022-09-12T00:27:33.826Z,48.90
2022-09-12T00:28:33.828Z,42.70
2022-09-12T00:29:33.797Z,44.30
2022-09-12T00:30:33.801Z,42.80
2022-09-12T00:31:33.816Z,43.20
2022-09-12T00:32:34.080Z,49.70
2022-09-12T00:33:33.760Z,48.30
2022-09-12T00:34:33.730Z,40.30
2022-09-12T00:35:33.741Z,40.10
2022-09-12T00:36:33.721Z,41.40
2022-09-12T00:37:33.699Z,45.40
2022-09-12T00:38:33.809Z,42.70
2022-09-12T00:39:33.682Z,42.10
2022-09-12T00:40:33.649Z,40.50
2022-09-12T00:41:33.650Z,39.30
2022-09-12T00:42:33.643Z,42.50
2022-09-12T00:43:33.644Z,40.90
2022-09-12T00:44:33.607Z,40.10
2022-09-12T00:45:33.630Z,44.00
2022-09-12T00:46:33.571Z,49.90
2022-09-12T00:47:33.562Z,50.10
2022-09-12T00:48:33.555Z,47.60
2022-09-12T00:49:33.541Z,48.90
2022-09-12T00:50:33.540Z,44.80
2022-09-12T00:51:33.536Z,41.40
2022-09-12T00:52:33.495Z,42.50
2022-09-12T00:53:33.499Z,35.40
2022-09-12T00:54:33.489Z,39.10
2022-09-12T00:55:33.464Z,37.70
2022-09-12T00:56:33.458Z,36.50
2022-09-12T00:57:33.459Z,44.40
2022-09-12T00:58:33.415Z,40.00
2022-09-12T00:59:33.414Z,43.00
2022-09-12T01:00:33.409Z,44.50
2022-09-12T01:01:33.499Z,48.70
2022-09-12T01:02:33.370Z,51.70
2022-09-12T01:03:33.370Z,45.60
2022-09-12T01:04:33.367Z,43.10
2022-09-12T01:05:33.342Z,44.80
2022-09-12T01:06:33.333Z,44.10
2022-09-12T01:07:35.810Z,51.00
2022-09-12T01:08:34.314Z,48.90
2022-09-12T01:09:33.265Z,41.30
2022-09-12T01:10:33.404Z,48.20
2022-09-12T01:11:34.093Z,53.00
2022-09-12T01:12:33.229Z,51.00
2022-09-12T01:13:33.212Z,55.00
2022-09-12T01:14:33.221Z,52.70
2022-09-12T01:15:33.918Z,48.70
2022-09-12T01:16:33.261Z,50.50
2022-09-12T01:17:33.174Z,51.10
2022-09-12T01:18:33.159Z,50.90
2022-09-12T01:19:33.132Z,49.80
2022-09-12T01:20:33.136Z,46.80
2022-09-12T01:21:33.112Z,46.60
2022-09-12T01:22:33.116Z,51.80
2022-09-12T01:23:33.087Z,54.60
2022-09-12T01:24:33.071Z,62.90
2022-09-12T01:25:33.077Z,66.60
2022-09-12T01:26:33.044Z,47.80
2022-09-12T01:27:33.061Z,41.70
2022-09-12T01:28:33.038Z,38.00
2022-09-12T01:29:33.008Z,38.20
2022-09-12T01:30:33.009Z,40.30
2022-09-12T01:31:32.965Z,40.70
2022-09-12T01:32:32.988Z,39.20
2022-09-12T01:33:32.948Z,43.40
2022-09-12T01:34:33.928Z,47.30
2022-09-12T01:35:32.930Z,44.00
2022-09-12T01:36:32.904Z,35.60
2022-09-12T01:37:32.902Z,39.40
2022-09-12T01:38:33.027Z,37.40
2022-09-12T01:39:32.858Z,39.30
2022-09-12T01:40:32.871Z,42.30
2022-09-12T01:41:33.797Z,35.40
2022-09-12T01:42:32.849Z,41.10
2022-09-12T01:43:32.829Z,43.80
2022-09-12T01:44:33.763Z,49.80
2022-09-12T01:45:32.813Z,47.30
2022-09-12T01:46:32.793Z,45.10
2022-09-12T01:47:32.764Z,44.80
2022-09-12T01:48:32.748Z,47.10
2022-09-12T01:49:32.743Z,45.70
2022-09-12T01:50:32.721Z,54.10
2022-09-12T01:51:32.712Z,47.40
2022-09-12T01:52:32.717Z,46.50
2022-09-12T01:53:32.678Z,51.80
2022-09-12T01:54:32.805Z,46.60
2022-09-12T01:55:32.662Z,49.50
2022-09-12T01:56:32.645Z,43.30
2022-09-12T01:57:33.345Z,35.80
2022-09-12T01:58:32.611Z,31.20
2022-09-12T01:59:32.585Z,32.20
2022-09-12T02:00:32.716Z,34.90
2022-09-12T02:01:32.642Z,39.00
2022-09-12T02:02:32.571Z,41.20
2022-09-12T02:03:32.548Z,41.60
2022-09-12T02:04:34.396Z,32.70
2022-09-12T02:05:32.539Z,35.50
2022-09-12T02:06:32.512Z,38.80
2022-09-12T02:07:32.476Z,37.50
2022-09-12T02:08:32.491Z,40.80
2022-09-12T02:09:32.482Z,42.90
2022-09-12T02:10:32.886Z,43.30
2022-09-12T02:11:32.449Z,43.60
2022-09-12T02:12:32.426Z,42.50
2022-09-12T02:13:33.373Z,43.90
2022-09-12T02:14:33.088Z,47.50
2022-09-12T02:15:32.378Z,41.10
2022-09-12T02:16:32.405Z,41.20
2022-09-12T02:17:32.362Z,40.30
2022-09-12T02:18:32.337Z,37.20
2022-09-12T02:19:32.318Z,40.50
2022-09-12T02:20:47.494Z,46.40
2022-09-12T02:21:33.410Z,42.10
2022-09-12T02:22:32.293Z,38.40
2022-09-12T02:23:32.281Z,36.20
2022-09-12T02:24:32.260Z,39.20
2022-09-12T02:25:32.245Z,49.50
2022-09-12T02:26:32.229Z,49.40
2022-09-12T02:27:32.222Z,50.40
2022-09-12T02:28:32.215Z,51.30
2022-09-12T02:29:32.182Z,57.10
2022-09-12T02:30:32.278Z,65.60
2022-09-12T02:31:32.166Z,77.00
2022-09-12T02:32:32.152Z,68.30
2022-09-12T02:33:32.124Z,80.30
2022-09-12T02:34:32.138Z,83.80
2022-09-12T02:35:32.116Z,67.40
2022-09-12T02:36:32.101Z,61.10
2022-09-12T02:37:32.202Z,65.70
2022-09-12T02:38:32.065Z,72.40
2022-09-12T02:39:32.045Z,62.40
2022-09-12T02:40:32.058Z,65.90
2022-09-12T02:41:32.029Z,64.40
2022-09-12T02:42:32.029Z,68.80
2022-09-12T02:43:32.039Z,68.60
2022-09-12T02:44:31.995Z,114.50
2022-09-12T02:45:32.022Z,63.10
2022-09-12T02:46:31.957Z,81.00
2022-09-12T02:47:32.628Z,97.10
2022-09-12T02:48:32.822Z,67.50
2022-09-12T02:49:32.061Z,76.30
2022-09-12T02:50:31.917Z,78.30
2022-09-12T02:51:31.892Z,102.30
2022-09-12T02:52:31.894Z,252.80
2022-09-12T02:53:31.859Z,187.10
2022-09-12T02:54:32.815Z,236.30
2022-09-12T02:55:31.854Z,309.30
2022-09-12T02:56:32.529Z,277.20
2022-09-12T02:57:31.823Z,296.10
2022-09-12T02:58:31.809Z,206.70
2022-09-12T02:59:31.784Z,198.30
2022-09-12T03:00:31.815Z,93.50
2022-09-12T03:01:31.770Z,332.90
2022-09-12T03:02:31.765Z,118.70
2022-09-12T03:03:31.744Z,234.50
2022-09-12T03:04:31.730Z,152.40
2022-09-12T03:05:31.715Z,146.90
2022-09-12T03:06:31.924Z,143.90
2022-09-12T03:07:31.681Z,136.70
2022-09-12T03:08:31.679Z,97.90
2022-09-12T03:09:31.645Z,63.10
2022-09-12T03:10:31.657Z,103.20
2022-09-12T03:11:31.636Z,95.50
2022-09-12T03:12:31.725Z,75.80
2022-09-12T03:13:31.609Z,71.20
2022-09-12T03:14:31.595Z,68.30
2022-09-12T03:15:31.569Z,83.90
2022-09-12T03:16:31.683Z,84.30
2022-09-12T03:17:31.544Z,91.30
2022-09-12T03:18:31.592Z,111.20
2022-09-12T03:19:31.534Z,72.30
2022-09-12T03:20:31.505Z,100.80
2022-09-12T03:21:31.490Z,206.00
2022-09-12T03:22:31.491Z,265.70
2022-09-12T03:23:31.471Z,150.40
2022-09-12T03:24:31.457Z,241.20
2022-09-12T03:25:31.450Z,231.60
2022-09-12T03:26:31.438Z,360.00
2022-09-12T03:27:31.408Z,236.30
2022-09-12T03:28:31.414Z,271.20
2022-09-12T03:29:31.381Z,260.10
2022-09-12T03:30:31.397Z,190.30
2022-09-12T03:31:31.374Z,140.90
2022-09-12T03:32:31.350Z,149.20
2022-09-12T03:33:31.345Z,100.50
2022-09-12T03:34:31.333Z,99.30
2022-09-12T03:35:32.261Z,136.10
2022-09-12T03:36:31.306Z,156.90
2022-09-12T03:37:31.289Z,76.10
2022-09-12T03:38:32.222Z,73.50
2022-09-12T03:39:32.202Z,107.80
2022-09-12T03:40:31.256Z,154.20
2022-09-12T03:41:31.224Z,150.90
2022-09-12T03:42:31.230Z,150.70
2022-09-12T03:43:31.217Z,138.20
2022-09-12T03:44:31.224Z,119.50
2022-09-12T03:45:31.241Z,94.10
2022-09-12T03:46:31.163Z,116.20
2022-09-12T03:47:31.148Z,93.60
2022-09-12T03:48:31.149Z,86.10
2022-09-12T03:49:31.114Z,92.00
2022-09-12T03:50:31.419Z,83.60
2022-09-12T03:51:31.118Z,112.50
2022-09-12T03:52:31.079Z,188.70
2022-09-12T03:53:31.057Z,254.30
2022-09-12T03:54:31.073Z,225.30
2022-09-12T03:55:31.056Z,205.70
2022-09-12T03:56:31.151Z,130.10
2022-09-12T03:57:31.030Z,165.50
2022-09-12T03:58:31.000Z,177.50
2022-09-12T03:59:30.989Z,213.60
2022-09-12T04:00:30.993Z,89.00
2022-09-12T04:01:30.975Z,83.80
2022-09-12T04:02:30.989Z,64.00
2022-09-12T04:03:30.943Z,66.60
2022-09-12T04:04:30.919Z,59.40
2022-09-12T04:05:30.918Z,55.30
2022-09-12T04:06:30.900Z,57.20
2022-09-12T04:07:30.921Z,52.80
2022-09-12T04:08:30.885Z,55.50
2022-09-12T04:09:30.858Z,53.80
2022-09-12T04:10:30.863Z,57.10
2022-09-12T04:11:30.835Z,70.00
2022-09-12T04:12:30.812Z,65.40
2022-09-12T04:13:30.845Z,70.60
2022-09-12T04:14:30.783Z,69.50
2022-09-12T04:15:30.774Z,58.30
2022-09-12T04:16:30.801Z,75.10
2022-09-12T04:17:30.744Z,63.30
2022-09-12T04:18:30.757Z,71.20
2022-09-12T04:19:31.688Z,64.40
2022-09-12T04:20:30.715Z,114.90
2022-09-12T04:21:30.711Z,61.60
2022-09-12T04:22:30.695Z,62.40
2022-09-12T04:23:30.667Z,64.80
2022-09-12T04:24:30.788Z,63.20
2022-09-12T04:25:30.649Z,62.80
2022-09-12T04:26:30.636Z,62.20
2022-09-12T04:27:30.617Z,135.40
2022-09-12T04:28:30.620Z,263.10
2022-09-12T04:29:30.587Z,148.90
2022-09-12T04:30:30.737Z,179.60
2022-09-12T04:31:30.571Z,238.00
2022-09-12T04:32:30.588Z,104.10
2022-09-12T04:33:30.561Z,70.50
2022-09-12T04:34:30.526Z,66.20
2022-09-12T04:35:30.516Z,63.30
2022-09-12T04:36:30.522Z,59.50
2022-09-12T04:37:30.508Z,66.50
2022-09-12T04:38:30.484Z,62.10
2022-09-12T04:39:30.473Z,71.20
2022-09-12T04:40:30.451Z,67.00
2022-09-12T04:41:30.432Z,63.70
2022-09-12T04:42:30.434Z,65.30
2022-09-12T04:43:30.415Z,65.40
2022-09-12T04:44:30.391Z,57.20
2022-09-12T04:45:30.449Z,59.90
2022-09-12T04:46:30.411Z,58.20
2022-09-12T04:47:30.354Z,63.20
2022-09-12T04:48:30.357Z,58.00
2022-09-12T04:49:30.325Z,61.00
2022-09-12T04:50:30.326Z,60.90
2022-09-12T04:51:30.318Z,62.20
2022-09-12T04:52:30.314Z,59.10
2022-09-12T04:53:31.238Z,64.90
2022-09-12T04:54:30.269Z,63.50
2022-09-12T04:55:30.244Z,68.60
2022-09-12T04:56:30.250Z,59.40
2022-09-12T04:57:30.228Z,64.50
2022-09-12T04:58:30.328Z,58.60
2022-09-12T04:59:30.197Z,62.30
2022-09-12T05:00:30.200Z,58.10
2022-09-12T05:01:30.434Z,58.70
2022-09-12T05:02:30.193Z,59.80
2022-09-12T05:03:31.110Z,61.10
2022-09-12T05:04:30.127Z,66.20
2022-09-12T05:05:30.121Z,67.80
2022-09-12T05:06:30.118Z,65.90
2022-09-12T05:07:30.087Z,62.30
2022-09-12T05:08:30.102Z,61.50
2022-09-12T05:09:30.067Z,63.60
2022-09-12T05:10:30.071Z,60.90
2022-09-12T05:11:46.701Z,62.90
2022-09-12T05:12:31.034Z,70.20
2022-09-12T05:13:30.009Z,69.10
2022-09-12T05:14:30.043Z,80.10
2022-09-12T05:15:29.994Z,67.10
2022-09-12T05:16:29.995Z,61.20
2022-09-12T05:17:29.974Z,58.20
2022-09-12T05:18:29.941Z,54.50
2022-09-12T05:19:29.931Z,56.00
2022-09-12T05:20:30.045Z,57.30
2022-09-12T05:21:29.909Z,55.30
2022-09-12T05:22:29.906Z,55.00
2022-09-12T05:23:29.895Z,55.40
2022-09-12T05:24:29.862Z,60.10
2022-09-12T05:25:30.556Z,64.90
2022-09-12T05:26:29.835Z,60.90
2022-09-12T05:27:29.831Z,60.10
2022-09-12T05:28:29.817Z,64.60
2022-09-12T05:29:29.816Z,63.60
2022-09-12T05:30:29.838Z,61.70
2022-09-12T05:31:29.784Z,59.30
2022-09-12T05:32:29.775Z,60.00
2022-09-12T05:33:29.744Z,56.10
2022-09-12T05:34:29.739Z,62.00
2022-09-12T05:35:29.729Z,60.70
2022-09-12T05:36:29.696Z,55.70
2022-09-12T05:37:29.710Z,54.50
2022-09-12T05:38:29.809Z,55.80
2022-09-12T05:39:29.667Z,49.80
2022-09-12T05:40:29.661Z,50.90
2022-09-12T05:41:29.677Z,52.10
2022-09-12T05:42:29.634Z,58.10
2022-09-12T05:43:29.622Z,60.50
2022-09-12T05:44:29.607Z,61.90
2022-09-12T05:45:29.725Z,60.30
2022-09-12T05:46:29.582Z,53.90
2022-09-12T05:47:29.693Z,52.30
2022-09-12T05:48:29.581Z,55.90
2022-09-12T05:49:29.544Z,54.90
2022-09-12T05:50:29.510Z,56.30
2022-09-12T05:51:29.500Z,56.40
2022-09-12T05:52:29.494Z,56.40
2022-09-12T05:53:29.510Z,59.80
2022-09-12T05:54:31.728Z,61.20
2022-09-12T05:55:29.473Z,52.40
2022-09-12T05:56:29.433Z,52.60
2022-09-12T05:57:29.438Z,51.70
2022-09-12T05:58:29.413Z,60.80
2022-09-12T05:59:29.405Z,61.40
2022-09-12T06:00:33.388Z,59.30
2022-09-12T06:01:29.392Z,71.90
2022-09-12T06:02:29.387Z,73.60
2022-09-12T06:03:29.343Z,68.40
2022-09-12T06:04:29.448Z,71.10
2022-09-12T06:05:29.314Z,65.20
2022-09-12T06:06:29.308Z,59.90
2022-09-12T06:07:29.312Z,61.80
2022-09-12T06:08:29.280Z,63.10
2022-09-12T06:09:29.270Z,79.50
2022-09-12T06:10:29.371Z,80.10
2022-09-12T06:11:29.235Z,80.20
2022-09-12T06:12:29.232Z,96.60
2022-09-12T06:13:29.209Z,84.80
2022-09-12T06:14:29.208Z,86.70
2022-09-12T06:15:29.194Z,95.90
2022-09-12T06:16:29.242Z,116.80
2022-09-12T06:17:29.170Z,109.70
2022-09-12T06:18:29.128Z,116.40
2022-09-12T06:19:29.128Z,118.40
2022-09-12T06:20:29.123Z,115.70
2022-09-12T06:21:29.111Z,119.80
2022-09-12T06:22:29.115Z,114.60
2022-09-12T06:23:29.084Z,116.40
2022-09-12T06:24:29.057Z,108.60
2022-09-12T06:25:29.069Z,114.30
2022-09-12T06:26:29.982Z,115.10
2022-09-12T06:27:29.050Z,112.40
2022-09-12T06:28:29.016Z,115.70
2022-09-12T06:29:28.991Z,122.00
2022-09-12T06:30:29.092Z,115.50
2022-09-12T06:31:28.976Z,116.00
2022-09-12T06:32:28.943Z,118.60
2022-09-12T06:33:29.073Z,114.30
2022-09-12T06:34:28.944Z,121.30
2022-09-12T06:35:28.928Z,119.70
2022-09-12T06:36:28.894Z,116.30
2022-09-12T06:37:28.897Z,116.30
2022-09-12T06:38:28.865Z,105.80
2022-09-12T06:39:28.867Z,111.50
2022-09-12T06:40:28.858Z,101.30
2022-09-12T06:41:28.833Z,97.40
2022-09-12T06:42:28.838Z,92.10
2022-09-12T06:43:28.830Z,81.90
2022-09-12T06:44:28.819Z,79.90
2022-09-12T06:45:28.800Z,80.40
2022-09-12T06:46:28.768Z,78.00
2022-09-12T06:47:28.756Z,70.70
2022-09-12T06:48:28.751Z,77.60
2022-09-12T06:49:28.740Z,74.70
2022-09-12T06:50:28.745Z,65.30
2022-09-12T06:51:28.710Z,69.80
2022-09-12T06:52:28.702Z,67.10
2022-09-12T06:53:28.679Z,62.50
2022-09-12T06:54:28.666Z,62.60
2022-09-12T06:55:28.665Z,61.60
2022-09-12T06:56:28.634Z,57.70
2022-09-12T06:57:28.636Z,57.90
2022-09-12T06:58:28.601Z,55.20
2022-09-12T06:59:28.598Z,53.60
2022-09-12T07:00:28.595Z,54.10
2022-09-12T07:01:28.594Z,50.80
2022-09-12T07:02:28.596Z,51.30
2022-09-12T07:03:28.556Z,52.30
2022-09-12T07:04:28.526Z,51.90
2022-09-12T07:05:28.513Z,54.50
2022-09-12T07:06:28.515Z,55.80
2022-09-12T07:07:28.497Z,54.40
2022-09-12T07:08:28.464Z,51.60
2022-09-12T07:09:28.480Z,49.90
2022-09-12T07:10:28.435Z,53.50
2022-09-12T07:11:28.444Z,51.60
2022-09-12T07:12:28.429Z,49.70
2022-09-12T07:13:28.404Z,48.90
2022-09-12T07:14:28.402Z,46.70
2022-09-12T07:15:28.390Z,47.80
2022-09-12T07:16:28.499Z,49.00
2022-09-12T07:17:28.361Z,48.40
2022-09-12T07:18:29.118Z,48.50
2022-09-12T07:19:28.328Z,51.10
2022-09-12T07:20:28.322Z,49.40
2022-09-12T07:21:28.309Z,48.20
2022-09-12T07:22:28.430Z,44.80
2022-09-12T07:23:28.290Z,44.40
2022-09-12T07:24:28.250Z,44.00
2022-09-12T07:25:28.269Z,50.40
2022-09-12T07:26:28.228Z,41.40
2022-09-12T07:27:28.219Z,43.30
2022-09-12T07:28:28.243Z,42.50
2022-09-12T07:29:37.483Z,41.70
2022-09-12T07:30:29.218Z,39.80
2022-09-12T07:31:28.176Z,39.80
2022-09-12T07:32:28.142Z,38.30
2022-09-12T07:33:28.146Z,39.20
2022-09-12T07:34:28.127Z,37.50
2022-09-12T07:35:28.114Z,38.40
2022-09-12T07:36:28.117Z,36.30
2022-09-12T07:37:28.097Z,40.00
2022-09-12T07:38:28.076Z,37.00
2022-09-12T07:39:28.093Z,35.00
2022-09-12T07:40:28.050Z,38.00
2022-09-12T07:41:28.032Z,44.60
2022-09-12T07:42:28.043Z,33.00
2022-09-12T07:43:28.047Z,34.30
2022-09-12T07:44:27.988Z,33.80
2022-09-12T07:45:28.136Z,34.90
2022-09-12T07:46:27.967Z,35.50
2022-09-12T07:47:27.947Z,32.90
2022-09-12T07:48:28.605Z,33.80
2022-09-12T07:49:27.929Z,31.40
2022-09-12T07:50:27.929Z,34.40
2022-09-12T07:51:27.920Z,30.50
2022-09-12T07:52:27.880Z,32.10
2022-09-12T07:53:27.870Z,30.50
2022-09-12T07:54:27.865Z,30.50
2022-09-12T07:55:27.854Z,30.10
2022-09-12T07:56:31.101Z,27.70
2022-09-12T07:57:27.833Z,29.90
2022-09-12T07:58:27.801Z,27.50
2022-09-12T07:59:48.831Z,28.80
2022-09-12T08:00:28.795Z,29.00
2022-09-12T08:01:27.795Z,28.10
2022-09-12T08:02:27.801Z,25.50
2022-09-12T08:03:27.754Z,25.60
2022-09-12T08:04:27.719Z,24.40
2022-09-12T08:05:27.717Z,23.50
2022-09-12T08:06:27.693Z,25.90
2022-09-12T08:07:27.684Z,23.10
2022-09-12T08:08:27.798Z,24.90
2022-09-12T08:09:27.670Z,22.80
2022-09-12T08:10:27.635Z,24.30
2022-09-12T08:11:27.634Z,22.10
2022-09-12T08:12:28.585Z,23.80
2022-09-12T08:13:27.606Z,23.70
2022-09-12T08:14:27.601Z,22.20
2022-09-12T08:15:27.659Z,22.00
2022-09-12T08:16:27.566Z,22.10
2022-09-12T08:17:27.563Z,21.10
2022-09-12T08:18:27.528Z,21.20
2022-09-12T08:19:27.549Z,22.70
2022-09-12T08:20:28.477Z,25.30
2022-09-12T08:21:27.498Z,21.80
2022-09-12T08:22:27.498Z,20.30
2022-09-12T08:23:27.485Z,21.80
2022-09-12T08:24:27.458Z,20.70
2022-09-12T08:25:27.465Z,20.40
2022-09-12T08:26:27.422Z,19.60
2022-09-12T08:27:27.422Z,22.80
2022-09-12T08:28:27.417Z,19.10
2022-09-12T08:29:27.504Z,18.70
2022-09-12T08:30:27.386Z,19.20
2022-09-12T08:31:27.379Z,19.40
2022-09-12T08:32:27.347Z,18.70
2022-09-12T08:33:27.347Z,18.20
2022-09-12T08:34:27.321Z,24.80
2022-09-12T08:35:27.414Z,18.50
2022-09-12T08:36:27.315Z,18.40
2022-09-12T08:37:27.282Z,18.40
2022-09-12T08:38:27.278Z,18.00
2022-09-12T08:39:27.260Z,18.70
2022-09-12T08:40:27.228Z,17.40
2022-09-12T08:41:27.242Z,18.40
2022-09-12T08:42:27.222Z,17.40
2022-09-12T08:43:27.213Z,17.80
2022-09-12T08:44:27.181Z,17.50
2022-09-12T08:45:27.183Z,18.60
2022-09-12T08:46:27.321Z,21.20
2022-09-12T08:47:27.151Z,16.90
2022-09-12T08:48:27.133Z,16.90
2022-09-12T08:49:27.111Z,16.50
2022-09-12T08:50:27.116Z,15.80
2022-09-12T08:51:27.103Z,16.00
2022-09-12T08:52:27.071Z,15.90
2022-09-12T08:53:27.077Z,15.70
2022-09-12T08:54:27.044Z,15.30
2022-09-12T08:55:27.033Z,15.20
2022-09-12T08:56:31.449Z,15.00
2022-09-12T08:57:27.027Z,21.30
2022-09-12T08:58:26.995Z,15.50
2022-09-12T08:59:26.984Z,15.30
2022-09-12T09:00:26.985Z,16.30
2022-09-12T09:01:27.000Z,16.70
2022-09-12T09:02:27.019Z,15.20
2022-09-12T09:03:26.940Z,14.70
2022-09-12T09:04:28.730Z,15.00
2022-09-12T09:05:26.924Z,16.30
2022-09-12T09:06:26.887Z,16.20
2022-09-12T09:07:26.878Z,16.40
2022-09-12T09:08:26.879Z,15.70
2022-09-12T09:09:28.244Z,15.90
2022-09-12T09:10:26.842Z,15.70
2022-09-12T09:11:26.832Z,17.10
2022-09-12T09:12:26.810Z,14.40
2022-09-12T09:13:26.807Z,14.90
2022-09-12T09:14:26.793Z,14.00
2022-09-12T09:15:26.826Z,14.20
2022-09-12T09:16:26.782Z,14.10
2022-09-12T09:17:26.754Z,14.30
2022-09-12T09:18:26.750Z,13.30
2022-09-12T09:19:26.724Z,14.70
2022-09-12T09:20:26.721Z,14.50
2022-09-12T09:21:26.702Z,13.90
2022-09-12T09:22:26.687Z,13.60
2022-09-12T09:23:26.677Z,13.30
2022-09-12T09:24:26.656Z,12.80
2022-09-12T09:25:26.658Z,12.50
2022-09-12T09:26:26.677Z,13.70
2022-09-12T09:27:42.103Z,12.00
2022-09-12T09:28:27.608Z,11.20
2022-09-12T09:29:26.640Z,10.20
2022-09-12T09:30:26.576Z,11.30
2022-09-12T09:31:26.621Z,11.30
2022-09-12T09:32:26.567Z,13.10
2022-09-12T09:33:26.531Z,11.30
2022-09-12T09:34:26.531Z,12.20
2022-09-12T09:35:26.539Z,11.40
2022-09-12T09:36:26.704Z,11.10
2022-09-12T09:37:26.507Z,10.60
2022-09-12T09:38:26.486Z,12.00
2022-09-12T09:39:26.449Z,10.90
2022-09-12T09:40:26.464Z,10.10
2022-09-12T09:41:26.481Z,10.00
2022-09-12T09:42:26.429Z,9.80
2022-09-12T09:43:26.414Z,9.90
2022-09-12T09:44:26.394Z,9.90
2022-09-12T09:45:26.374Z,10.80
2022-09-12T09:46:26.473Z,9.90
2022-09-12T09:47:26.365Z,9.40
2022-09-12T09:48:27.072Z,10.10
2022-09-12T09:49:26.337Z,9.30
2022-09-12T09:50:26.414Z,8.20
2022-09-12T09:51:26.285Z,8.30
2022-09-12T09:52:26.309Z,8.90
2022-09-12T09:53:26.265Z,10.40
2022-09-12T09:54:26.272Z,8.60
2022-09-12T09:55:26.260Z,8.80
2022-09-12T09:56:26.348Z,7.80
2022-09-12T09:57:26.229Z,9.40
2022-09-12T09:58:26.209Z,8.50
2022-09-12T09:59:26.188Z,8.20
2022-09-12T10:00:26.191Z,8.20
2022-09-12T10:01:26.197Z,8.70
2022-09-12T10:02:26.284Z,7.90
2022-09-12T10:03:26.130Z,8.40
2022-09-12T10:04:26.134Z,8.30
2022-09-12T10:05:26.111Z,8.70
2022-09-12T10:06:26.118Z,8.50
2022-09-12T10:07:26.093Z,7.80
2022-09-12T10:08:26.190Z,8.30
2022-09-12T10:09:26.065Z,8.30
2022-09-12T10:10:26.043Z,6.90
2022-09-12T10:11:26.027Z,8.10
2022-09-12T10:12:26.037Z,8.00
2022-09-12T10:13:26.005Z,7.90
2022-09-12T10:14:26.008Z,7.50
2022-09-12T10:15:25.990Z,9.80
2022-09-12T10:16:25.964Z,7.60
2022-09-12T10:17:25.946Z,10.80
2022-09-12T10:18:25.952Z,8.10
2022-09-12T10:19:31.141Z,7.10
2022-09-12T10:20:25.915Z,9.10
2022-09-12T10:21:25.913Z,8.20
2022-09-12T10:22:25.885Z,7.90
2022-09-12T10:23:25.870Z,8.00
2022-09-12T10:24:25.918Z,8.40
2022-09-12T10:25:25.845Z,8.20
2022-09-12T10:26:25.853Z,10.40
2022-09-12T10:27:25.831Z,7.50
2022-09-12T10:28:25.808Z,8.40
2022-09-12T10:29:25.808Z,8.10
2022-09-12T10:30:25.854Z,7.90
2022-09-12T10:31:25.779Z,9.20
2022-09-12T10:32:30.529Z,7.10
2022-09-12T10:33:26.733Z,6.80
2022-09-12T10:34:25.735Z,6.20
2022-09-12T10:35:25.729Z,7.60
2022-09-12T10:36:25.693Z,8.90
2022-09-12T10:37:25.687Z,7.20
2022-09-12T10:38:25.669Z,6.80
2022-09-12T10:39:25.653Z,5.90
2022-09-12T10:40:25.733Z,6.10
2022-09-12T10:41:25.627Z,6.50
2022-09-12T10:42:25.630Z,8.60
2022-09-12T10:43:25.632Z,7.40
2022-09-12T10:44:25.595Z,10.60
2022-09-12T10:45:25.700Z,6.40
2022-09-12T10:46:25.605Z,8.60
2022-09-12T10:47:25.548Z,7.50
2022-09-12T10:48:25.552Z,11.70
2022-09-12T10:49:25.537Z,6.50
2022-09-12T10:50:25.521Z,6.90
2022-09-12T10:51:25.498Z,6.40
2022-09-12T10:52:25.500Z,7.70
2022-09-12T10:53:25.471Z,6.50
2022-09-12T10:54:25.484Z,8.20
2022-09-12T10:55:25.459Z,6.30
2022-09-12T10:56:25.439Z,7.40
2022-09-12T10:57:25.426Z,11.10
2022-09-12T10:58:25.404Z,10.80
2022-09-12T10:59:25.393Z,6.40
2022-09-12T11:00:25.397Z,7.10
2022-09-12T11:01:25.440Z,6.70
2022-09-12T11:02:25.438Z,5.70
2022-09-12T11:03:25.348Z,6.00
2022-09-12T11:04:25.347Z,6.70
2022-09-12T11:05:25.306Z,7.20
2022-09-12T11:06:25.310Z,8.90
2022-09-12T11:07:25.330Z,10.30
2022-09-12T11:08:25.275Z,6.20
2022-09-12T11:09:25.279Z,9.80
2022-09-12T11:10:25.247Z,7.00
2022-09-12T11:11:25.227Z,7.00
2022-09-12T11:12:25.234Z,8.90
2022-09-12T11:13:25.207Z,6.90
2022-09-12T11:14:25.221Z,9.40
2022-09-12T11:15:25.193Z,6.70
2022-09-12T11:16:25.170Z,6.40
2022-09-12T11:17:25.162Z,6.60
2022-09-12T11:18:25.163Z,7.40
2022-09-12T11:19:25.126Z,7.80
2022-09-12T11:20:25.135Z,6.40
2022-09-12T11:21:25.117Z,6.10
2022-09-12T11:22:28.638Z,10.20
2022-09-12T11:23:26.102Z,6.40
2022-09-12T11:24:25.078Z,6.60
2022-09-12T11:25:25.053Z,8.60
2022-09-12T11:26:25.048Z,7.00
2022-09-12T11:27:25.037Z,9.50
2022-09-12T11:28:25.024Z,6.80
2022-09-12T11:29:25.040Z,7.30
2022-09-12T11:30:24.994Z,7.80
2022-09-12T11:31:24.967Z,7.20
2022-09-12T11:32:24.973Z,11.40
2022-09-12T11:33:24.946Z,6.80
2022-09-12T11:34:24.972Z,6.10
2022-09-12T11:35:24.932Z,6.20
2022-09-12T11:36:24.907Z,6.60
2022-09-12T11:37:24.903Z,10.00
2022-09-12T11:38:24.881Z,5.70
2022-09-12T11:39:24.851Z,6.30
2022-09-12T11:40:24.977Z,9.70
2022-09-12T11:41:24.832Z,6.40
2022-09-12T11:42:24.836Z,8.50
2022-09-12T11:43:24.826Z,10.20
2022-09-12T11:44:24.792Z,6.80
2022-09-12T11:45:24.796Z,7.30
2022-09-12T11:46:24.872Z,6.60
2022-09-12T11:47:24.745Z,7.70
2022-09-12T11:48:24.764Z,6.20
2022-09-12T11:49:24.724Z,7.30
2022-09-12T11:50:24.730Z,7.60
2022-09-12T11:51:24.710Z,8.30
2022-09-12T11:52:24.706Z,8.20
2022-09-12T11:53:24.667Z,6.50
2022-09-12T11:54:24.671Z,5.80
2022-09-12T11:55:24.665Z,8.20
2022-09-12T11:56:24.636Z,6.90
2022-09-12T11:57:24.742Z,6.00
2022-09-12T11:58:24.609Z,5.90
2022-09-12T11:59:24.581Z,6.90
2022-09-12T12:00:24.594Z,7.20
2022-09-12T12:01:24.581Z,7.30
2022-09-12T12:02:24.611Z,10.10
2022-09-12T12:03:24.637Z,9.20
2022-09-12T12:04:24.523Z,6.90
2022-09-12T12:05:24.517Z,6.10
2022-09-12T12:06:24.493Z,8.30
2022-09-12T12:07:24.474Z,6.20
2022-09-12T12:08:24.489Z,6.30
2022-09-12T12:09:24.468Z,7.40
2022-09-12T12:10:24.445Z,6.40
2022-09-12T12:11:24.433Z,6.10
2022-09-12T12:12:24.429Z,7.30
2022-09-12T12:13:24.513Z,9.80
2022-09-12T12:14:24.408Z,6.80
2022-09-12T12:15:24.381Z,7.80
2022-09-12T12:16:24.419Z,6.80
2022-09-12T12:17:24.371Z,8.00
2022-09-12T12:18:24.336Z,9.10
2022-09-12T12:19:24.318Z,5.70
2022-09-12T12:20:24.332Z,8.00
2022-09-12T12:21:24.990Z,7.30
2022-09-12T12:22:24.293Z,8.20
2022-09-12T12:23:24.297Z,6.10
2022-09-12T12:24:24.258Z,8.50
2022-09-12T12:25:28.868Z,7.00
2022-09-12T12:26:25.254Z,6.20
2022-09-12T12:27:24.226Z,8.10
2022-09-12T12:28:24.211Z,8.70
2022-09-12T12:29:24.318Z,7.90
2022-09-12T12:30:24.186Z,7.20
2022-09-12T12:31:24.210Z,7.80
2022-09-12T12:32:24.178Z,9.10
2022-09-12T12:33:24.138Z,7.40
2022-09-12T12:34:24.138Z,7.20
2022-09-12T12:35:24.129Z,5.90
2022-09-12T12:36:24.105Z,5.50
2022-09-12T12:37:24.101Z,5.10
2022-09-12T12:38:24.085Z,5.70
2022-09-12T12:39:24.058Z,7.10
2022-09-12T12:40:24.145Z,6.40
2022-09-12T12:41:24.029Z,7.80
2022-09-12T12:42:24.041Z,7.20
2022-09-12T12:43:24.023Z,5.70
2022-09-12T12:44:24.007Z,7.90
2022-09-12T12:45:24.791Z,7.30
2022-09-12T12:46:24.036Z,5.90
2022-09-12T12:47:23.957Z,6.00
2022-09-12T12:48:23.956Z,7.60
2022-09-12T12:49:23.923Z,5.90
2022-09-12T12:50:24.066Z,6.30
2022-09-12T12:51:23.927Z,6.20
2022-09-12T12:52:23.895Z,6.60
2022-09-12T12:53:23.887Z,8.00
2022-09-12T12:54:23.868Z,7.10
2022-09-12T12:55:23.845Z,10.50